Time,TemperatureF,DewpointF,PressureIn,WindDirection,WindDirectionDegrees,WindSpeedMPH,WindSpeedGustMPH,Humidity,HourlyPrecipIn,Conditions,Clouds,dailyrainin,SoftwareType,DateUTC
2013-04-21 00:01:00,48.9,48.7,30.16,North,0,0.0,1.0,99,0.00,,,0.34,meteohub,2013-04-21 04:01:00,
2013-04-21 00:02:00,48.9,48.7,30.16,North,0,0.0,1.0,99,0.00,,,0.34,meteohub,2013-04-21 04:02:00,
2013-04-21 00:04:00,48.9,48.7,30.16,North,0,0.0,1.0,99,0.00,,,0.34,meteohub,2013-04-21 04:04:00,
2013-04-21 00:09:00,48.7,48.6,30.16,North,0,0.0,1.0,99,0.00,,,0.00,meteohub,2013-04-21 04:09:00,
2013-04-21 00:14:00,48.7,48.6,30.16,North,0,0.0,1.0,99,0.00,,,0.00,meteohub,2013-04-21 04:14:00,
2013-04-21 00:19:00,48.6,48.4,30.16,North,0,0.0,0.0,99,0.00,,,0.00,meteohub,2013-04-21 04:19:00,
2013-04-21 00:24:00,48.6,48.4,30.16,North,0,0.0,0.0,99,0.00,,,0.00,meteohub,2013-04-21 04:24:00,
2013-04-21 00:29:00,48.4,48.2,30.16,North,0,0.0,0.0,99,0.00,,,0.00,meteohub,2013-04-21 04:29:00,
2013-04-21 00:34:00,48.4,48.2,30.16,North,0,0.0,0.0,99,0.00,,,0.00,meteohub,2013-04-21 04:34:00,
2013-04-21 00:39:00,48.4,48.2,30.16,North,0,0.0,0.0,99,0.00,,,0.00,meteohub,2013-04-21 04:39:00,
2013-04-21 00:44:00,48.2,48.0,30.16,North,0,0.0,0.0,99,0.00,,,0.00,meteohub,2013-04-21 04:44:00,
2013-04-21 00:49:00,48.0,47.8,30.16,North,0,0.0,0.0,99,0.00,,,0.00,meteohub,2013-04-21 04:49:00,
2013-04-21 00:54:00,47.8,47.7,30.17,North,0,0.0,0.0,99,0.00,,,0.00,meteohub,2013-04-21 04:54:00,
2013-04-21 00:59:00,47.7,47.5,30.17,North,0,0.0,0.0,99,0.00,,,0.00,meteohub,2013-04-21 04:59:00,
2013-04-21 01:04:00,47.7,47.5,30.17,North,0,0.0,0.0,99,0.00,,,0.00,meteohub,2013-04-21 05:04:00,
2013-04-21 01:10:00,47.7,47.5,30.17,North,0,0.0,0.0,99,0.00,,,0.00,meteohub,2013-04-21 05:10:00,
2013-04-21 01:15:00,47.7,47.5,30.17,North,0,0.0,0.0,99,0.00,,,0.00,meteohub,2013-04-21 05:15:00,
2013-04-21 01:20:00,47.7,47.5,30.17,North,0,0.0,0.0,99,0.00,,,0.00,meteohub,2013-04-21 05:20:00,
2013-04-21 01:25:00,47.7,47.5,30.17,North,0,0.0,0.0,99,0.00,,,0.00,meteohub,2013-04-21 05:25:00,
2013-04-21 01:30:00,47.5,47.3,30.17,North,0,0.0,0.0,99,0.00,,,0.00,meteohub,2013-04-21 05:30:00,
2013-04-21 01:35:00,47.5,47.3,30.17,North,0,0.0,0.0,99,0.00,,,0.00,meteohub,2013-04-21 05:35:00,
2013-04-21 01:40:00,47.5,47.3,30.16,North,0,0.0,0.0,99,0.00,,,0.00,meteohub,2013-04-21 05:40:00,
2013-04-21 01:45:00,47.5,47.3,30.16,North,0,0.0,0.0,99,0.00,,,0.00,meteohub,2013-04-21 05:45:00,
2013-04-21 01:50:00,47.3,47.1,30.17,North,0,0.0,0.0,99,0.00,,,0.00,meteohub,2013-04-21 05:50:00,
2013-04-21 01:55:00,47.1,46.9,30.16,North,0,0.0,0.0,99,0.00,,,0.00,meteohub,2013-04-21 05:55:00,
2013-04-21 02:00:00,46.9,46.8,30.16,North,0,0.0,0.0,99,0.00,,,0.00,meteohub,2013-04-21 06:00:00,
2013-04-21 02:05:00,46.6,46.4,30.16,North,0,0.0,0.0,99,0.00,,,0.00,meteohub,2013-04-21 06:05:00,
2013-04-21 02:10:00,46.6,46.4,30.17,North,0,0.0,0.0,99,0.00,,,0.00,meteohub,2013-04-21 06:10:00,
2013-04-21 02:15:00,46.6,46.4,30.17,North,0,0.0,0.0,99,0.00,,,0.00,meteohub,2013-04-21 06:15:00,
2013-04-21 02:20:00,46.6,46.4,30.16,North,0,0.0,0.0,99,0.00,,,0.00,meteohub,2013-04-21 06:20:00,
2013-04-21 02:25:00,46.6,46.4,30.16,North,0,0.0,0.0,99,0.00,,,0.00,meteohub,2013-04-21 06:25:00,
2013-04-21 02:30:00,46.8,46.6,30.16,North,0,0.0,0.0,99,0.00,,,0.00,meteohub,2013-04-21 06:30:00,
2013-04-21 02:35:00,46.8,46.6,30.15,North,0,0.0,0.0,99,0.00,,,0.00,meteohub,2013-04-21 06:35:00,
2013-04-21 02:41:00,46.6,46.4,30.15,North,0,0.0,0.0,99,0.00,,,0.00,meteohub,2013-04-21 06:41:00,
2013-04-21 02:46:00,46.4,46.2,30.15,North,0,0.0,0.0,99,0.00,,,0.00,meteohub,2013-04-21 06:46:00,
2013-04-21 02:51:00,46.4,46.2,30.15,North,0,0.0,0.0,99,0.00,,,0.00,meteohub,2013-04-21 06:51:00,
2013-04-21 02:56:00,46.0,45.9,30.15,North,0,0.0,0.0,99,0.00,,,0.00,meteohub,2013-04-21 06:56:00,
2013-04-21 03:01:00,45.7,45.5,30.15,North,0,0.0,0.0,99,0.00,,,0.00,meteohub,2013-04-21 07:01:00,
2013-04-21 03:06:00,45.5,45.3,30.15,North,0,0.0,0.0,99,0.00,,,0.00,meteohub,2013-04-21 07:06:00,
2013-04-21 03:11:00,45.7,45.5,30.15,North,0,0.0,0.0,99,0.00,,,0.00,meteohub,2013-04-21 07:11:00,
2013-04-21 03:16:00,45.9,45.7,30.15,North,0,0.0,0.0,99,0.00,,,0.00,meteohub,2013-04-21 07:16:00,
2013-04-21 03:21:00,45.9,45.7,30.15,North,0,0.0,0.0,99,0.00,,,0.00,meteohub,2013-04-21 07:21:00,
2013-04-21 03:26:00,45.9,45.7,30.15,North,0,0.0,0.0,99,0.00,,,0.00,meteohub,2013-04-21 07:26:00,
2013-04-21 03:31:00,46.0,45.9,30.15,North,0,0.0,0.0,99,0.00,,,0.00,meteohub,2013-04-21 07:31:00,
2013-04-21 03:36:00,45.9,45.7,30.15,North,0,0.0,0.0,99,0.00,,,0.00,meteohub,2013-04-21 07:36:00,
2013-04-21 03:41:00,45.5,45.3,30.15,North,0,0.0,0.0,99,0.00,,,0.00,meteohub,2013-04-21 07:41:00,
2013-04-21 03:46:00,45.5,45.3,30.15,North,0,0.0,0.0,99,0.00,,,0.00,meteohub,2013-04-21 07:46:00,
2013-04-21 03:51:00,45.5,45.3,30.16,North,0,0.0,0.0,99,0.00,,,0.00,meteohub,2013-04-21 07:51:00,
2013-04-21 03:56:00,45.7,45.5,30.16,SW,225,0.0,0.0,99,0.00,,,0.00,meteohub,2013-04-21 07:56:00,
2013-04-21 04:01:00,45.7,45.5,30.15,SW,225,0.0,0.0,99,0.00,,,0.00,meteohub,2013-04-21 08:01:00,
2013-04-21 04:06:00,45.9,45.7,30.14,SE,135,1.0,0.0,99,0.00,,,0.00,meteohub,2013-04-21 08:06:00,
2013-04-21 04:12:00,46.0,45.9,30.15,SE,135,0.0,1.0,99,0.00,,,0.00,meteohub,2013-04-21 08:12:00,
2013-04-21 04:17:00,46.0,45.9,30.15,SE,135,0.0,1.0,99,0.00,,,0.00,meteohub,2013-04-21 08:17:00,
2013-04-21 04:22:00,45.9,45.7,30.15,SE,135,0.0,1.0,99,0.00,,,0.00,meteohub,2013-04-21 08:22:00,
2013-04-21 04:27:00,45.7,45.5,30.15,SE,135,0.0,0.0,99,0.00,,,0.00,meteohub,2013-04-21 08:27:00,
2013-04-21 04:32:00,45.3,45.1,30.15,SE,135,0.0,0.0,99,0.00,,,0.00,meteohub,2013-04-21 08:32:00,
2013-04-21 04:37:00,45.1,45.0,30.15,SE,135,0.0,0.0,99,0.00,,,0.00,meteohub,2013-04-21 08:37:00,
2013-04-21 04:42:00,45.1,45.0,30.15,NW,315,0.0,0.0,99,0.00,,,0.00,meteohub,2013-04-21 08:42:00,
2013-04-21 04:47:00,45.1,45.0,30.15,NW,315,0.0,1.0,99,0.00,,,0.00,meteohub,2013-04-21 08:47:00,
2013-04-21 04:52:00,45.0,44.8,30.16,NW,315,0.0,1.0,99,0.00,,,0.00,meteohub,2013-04-21 08:52:00,
2013-04-21 04:57:00,44.8,44.6,30.16,NW,315,0.0,1.0,99,0.00,,,0.00,meteohub,2013-04-21 08:57:00,
2013-04-21 05:02:00,44.6,44.4,30.16,NW,315,0.0,0.0,99,0.00,,,0.00,meteohub,2013-04-21 09:02:00,
2013-04-21 05:07:00,44.6,44.4,30.15,NW,315,0.0,0.0,99,0.00,,,0.00,meteohub,2013-04-21 09:07:00,
2013-04-21 05:12:00,44.4,44.2,30.16,NW,315,0.0,0.0,99,0.00,,,0.00,meteohub,2013-04-21 09:12:00,
2013-04-21 05:17:00,44.6,44.4,30.16,NW,315,0.0,0.0,99,0.00,,,0.00,meteohub,2013-04-21 09:17:00,
2013-04-21 05:22:00,44.6,44.4,30.16,NW,315,0.0,0.0,99,0.00,,,0.00,meteohub,2013-04-21 09:22:00,
2013-04-21 05:27:00,44.6,44.4,30.16,NW,315,0.0,1.0,99,0.00,,,0.00,meteohub,2013-04-21 09:27:00,
2013-04-21 05:32:00,44.6,44.4,30.16,SE,135,0.0,1.0,99,0.00,,,0.00,meteohub,2013-04-21 09:32:00,
2013-04-21 05:37:00,44.6,44.4,30.16,SE,135,0.0,1.0,99,0.00,,,0.00,meteohub,2013-04-21 09:37:00,
2013-04-21 05:42:00,44.6,44.4,30.16,SE,135,2.0,2.0,99,0.00,,,0.00,meteohub,2013-04-21 09:42:00,
2013-04-21 05:47:00,45.0,44.8,30.16,East,90,2.0,2.0,99,0.00,,,0.00,meteohub,2013-04-21 09:47:00,
2013-04-21 05:52:00,45.1,45.0,30.17,SE,135,1.0,2.0,99,0.00,,,0.00,meteohub,2013-04-21 09:52:00,
2013-04-21 05:57:00,45.1,45.0,30.17,SW,225,0.0,2.0,99,0.00,,,0.00,meteohub,2013-04-21 09:57:00,
2013-04-21 06:02:00,45.0,44.8,30.17,NW,315,0.0,2.0,99,0.00,,,0.00,meteohub,2013-04-21 10:02:00,
2013-04-21 06:07:00,45.0,44.8,30.17,East,90,1.0,2.0,99,0.00,,,0.00,meteohub,2013-04-21 10:07:00,
2013-04-21 06:12:00,44.8,44.6,30.17,SW,225,1.0,1.0,99,0.00,,,0.00,meteohub,2013-04-21 10:12:00,
2013-04-21 06:17:00,44.8,44.6,30.17,South,180,0.0,1.0,99,0.00,,,0.00,meteohub,2013-04-21 10:17:00,
2013-04-21 06:22:00,44.8,44.6,30.18,South,180,0.0,1.0,99,0.00,,,0.00,meteohub,2013-04-21 10:22:00,
2013-04-21 06:27:00,44.6,44.4,30.18,South,180,0.0,1.0,99,0.00,,,0.00,meteohub,2013-04-21 10:27:00,
2013-04-21 06:32:00,44.4,44.2,30.18,North,0,0.0,0.0,99,0.00,,,0.00,meteohub,2013-04-21 10:32:00,
2013-04-21 06:37:00,44.2,44.1,30.18,North,0,0.0,0.0,99,0.00,,,0.00,meteohub,2013-04-21 10:37:00,
2013-04-21 06:42:00,44.1,43.9,30.18,North,0,0.0,0.0,99,0.00,,,0.00,meteohub,2013-04-21 10:42:00,
2013-04-21 06:47:00,44.1,43.9,30.18,East,90,0.0,0.0,99,0.00,,,0.00,meteohub,2013-04-21 10:47:00,
2013-04-21 06:52:00,44.1,43.9,30.19,North,0,0.0,1.0,99,0.00,,,0.00,meteohub,2013-04-21 10:52:00,
2013-04-21 06:57:00,44.1,43.9,30.19,North,0,0.0,1.0,99,0.00,,,0.00,meteohub,2013-04-21 10:57:00,
2013-04-21 07:02:00,44.1,43.9,30.19,North,0,0.0,1.0,99,0.00,,,0.00,meteohub,2013-04-21 11:02:00,
2013-04-21 07:07:00,44.2,44.1,30.19,SW,225,0.0,1.0,99,0.00,,,0.00,meteohub,2013-04-21 11:07:00,
2013-04-21 07:12:00,44.8,44.6,30.19,SW,225,0.0,1.0,99,0.00,,,0.00,meteohub,2013-04-21 11:12:00,
2013-04-21 07:17:00,45.1,45.0,30.20,SW,225,0.0,1.0,99,0.00,,,0.00,meteohub,2013-04-21 11:17:00,
2013-04-21 07:22:00,45.9,45.7,30.20,NW,315,1.0,1.0,99,0.00,,,0.00,meteohub,2013-04-21 11:22:00,
2013-04-21 07:27:00,46.6,46.4,30.20,SE,135,3.0,3.0,99,0.00,,,0.00,meteohub,2013-04-21 11:27:00,
2013-04-21 07:32:00,47.3,47.1,30.20,South,180,2.0,3.0,99,0.00,,,0.00,meteohub,2013-04-21 11:32:00,
2013-04-21 07:37:00,47.7,47.5,30.20,SW,225,2.0,3.0,99,0.00,,,0.00,meteohub,2013-04-21 11:37:00,
2013-04-21 07:42:00,48.0,47.8,30.20,SW,225,3.0,3.0,99,0.00,,,0.00,meteohub,2013-04-21 11:42:00,
2013-04-21 07:47:00,48.6,48.4,30.20,South,180,2.0,3.0,99,0.00,,,0.00,meteohub,2013-04-21 11:47:00,
2013-04-21 07:52:00,48.9,48.7,30.20,SE,135,2.0,3.0,99,0.00,,,0.00,meteohub,2013-04-21 11:52:00,
2013-04-21 07:57:00,49.5,49.3,30.20,South,180,1.0,3.0,99,0.00,,,0.00,meteohub,2013-04-21 11:57:00,
2013-04-21 08:02:00,49.8,49.5,30.20,NW,315,2.0,2.0,99,0.00,,,0.00,meteohub,2013-04-21 12:02:00,
2013-04-21 08:07:00,50.4,50.0,30.21,SW,225,2.0,2.0,99,0.00,,,0.00,meteohub,2013-04-21 12:07:00,
2013-04-21 08:12:00,50.9,50.5,30.20,East,90,2.0,4.0,99,0.00,,,0.00,meteohub,2013-04-21 12:12:00,
2013-04-21 08:17:00,51.4,51.1,30.20,SE,135,3.0,4.0,99,0.00,,,0.00,meteohub,2013-04-21 12:17:00,
2013-04-21 08:22:00,52.3,52.0,30.20,SE,135,3.0,4.0,99,0.00,,,0.00,meteohub,2013-04-21 12:22:00,
2013-04-21 08:27:00,53.6,53.2,30.19,SSW,203,3.0,5.0,99,0.00,,,0.00,meteohub,2013-04-21 12:27:00,
2013-04-21 08:32:00,55.4,55.0,30.20,SE,135,4.0,5.0,99,0.00,,,0.00,meteohub,2013-04-21 12:32:00,
2013-04-21 08:37:00,56.5,56.1,30.20,West,270,3.0,5.0,99,0.00,,,0.00,meteohub,2013-04-21 12:37:00,
2013-04-21 08:42:00,57.4,57.0,30.20,NW,315,6.0,6.0,99,0.00,,,0.00,meteohub,2013-04-21 12:42:00,
2013-04-21 08:47:00,57.9,57.6,30.20,East,90,4.0,6.0,99,0.00,,,0.00,meteohub,2013-04-21 12:47:00,
2013-04-21 08:52:00,58.8,58.5,30.20,SSE,158,4.0,6.0,99,0.00,,,0.00,meteohub,2013-04-21 12:52:00,
2013-04-21 08:57:00,59.4,58.5,30.20,East,90,5.0,7.0,97,0.00,,,0.00,meteohub,2013-04-21 12:57:00,
2013-04-21 09:02:00,59.7,59.2,30.20,East,90,6.0,7.0,98,0.00,,,0.00,meteohub,2013-04-21 13:02:00,
2013-04-21 09:07:00,60.4,59.0,30.20,SE,135,4.0,7.0,95,0.00,,,0.00,meteohub,2013-04-21 13:07:00,
2013-04-21 09:12:00,61.2,59.4,30.20,SSW,203,6.0,6.0,94,0.00,,,0.00,meteohub,2013-04-21 13:12:00,
2013-04-21 09:17:00,62.2,60.4,30.20,North,0,3.0,6.0,94,0.00,,,0.00,meteohub,2013-04-21 13:17:00,
2013-04-21 09:22:00,62.6,60.3,30.20,SE,135,3.0,6.0,92,0.00,,,0.00,meteohub,2013-04-21 13:22:00,
2013-04-21 09:27:00,63.7,60.4,30.21,SE,135,4.0,6.0,89,0.00,,,0.00,meteohub,2013-04-21 13:27:00,
2013-04-21 09:32:00,64.9,60.6,30.20,SE,135,2.0,6.0,86,0.00,,,0.00,meteohub,2013-04-21 13:32:00,
2013-04-21 09:37:00,65.5,60.4,30.20,NE,45,6.0,6.0,84,0.00,,,0.00,meteohub,2013-04-21 13:37:00,
2013-04-21 09:42:00,65.8,60.6,30.20,East,90,4.0,6.0,83,0.00,,,0.00,meteohub,2013-04-21 13:42:00,
2013-04-21 09:47:00,65.5,61.2,30.20,East,90,4.0,7.0,86,0.00,,,0.00,meteohub,2013-04-21 13:47:00,
2013-04-21 09:52:00,65.8,61.2,30.21,SE,135,10.0,10.0,85,0.00,,,0.00,meteohub,2013-04-21 13:52:00,
2013-04-21 09:57:00,65.7,61.3,30.20,SE,135,9.0,10.0,86,0.00,,,0.00,meteohub,2013-04-21 13:57:00,
2013-04-21 10:02:00,65.8,60.8,30.20,ESE,113,11.0,12.0,84,0.00,,,0.00,meteohub,2013-04-21 14:02:00,
2013-04-21 10:07:00,66.6,61.2,30.21,SE,135,5.0,12.0,83,0.00,,,0.00,meteohub,2013-04-21 14:07:00,
2013-04-21 10:12:00,66.7,60.1,30.21,SE,135,9.0,11.0,79,0.00,,,0.00,meteohub,2013-04-21 14:12:00,
2013-04-21 10:17:00,66.7,59.7,30.20,SE,135,10.0,13.0,78,0.00,,,0.00,meteohub,2013-04-21 14:17:00,
2013-04-21 10:22:00,66.9,61.5,30.21,SE,135,10.0,13.0,83,0.00,,,0.00,meteohub,2013-04-21 14:22:00,
2013-04-21 10:27:00,67.6,61.0,30.21,SSE,158,9.0,13.0,79,0.00,,,0.00,meteohub,2013-04-21 14:27:00,
2013-04-21 10:32:00,67.5,62.1,30.20,SE,135,11.0,14.0,83,0.00,,,0.00,meteohub,2013-04-21 14:32:00,
2013-04-21 10:37:00,67.3,61.0,30.21,East,90,15.0,16.0,80,0.00,,,0.00,meteohub,2013-04-21 14:37:00,
2013-04-21 10:42:00,67.6,61.0,30.21,ESE,113,11.0,16.0,79,0.00,,,0.00,meteohub,2013-04-21 14:42:00,
2013-04-21 10:47:00,67.6,60.6,30.21,East,90,10.0,16.0,78,0.00,,,0.00,meteohub,2013-04-21 14:47:00,
2013-04-21 10:52:00,68.4,62.2,30.21,SE,135,12.0,15.0,81,0.00,,,0.00,meteohub,2013-04-21 14:52:00,
2013-04-21 10:57:00,68.4,61.2,30.21,ESE,113,12.0,14.0,78,0.00,,,0.00,meteohub,2013-04-21 14:57:00,
2013-04-21 11:02:00,68.2,62.1,30.21,East,90,8.0,15.0,81,0.00,,,0.00,meteohub,2013-04-21 15:02:00,
2013-04-21 11:07:00,68.5,62.4,30.21,ESE,113,9.0,15.0,81,0.00,,,0.00,meteohub,2013-04-21 15:07:00,
2013-04-21 11:12:00,69.3,61.3,30.22,East,90,12.0,15.0,76,0.00,,,0.00,meteohub,2013-04-21 15:12:00,
2013-04-21 11:17:00,69.4,63.3,30.21,East,90,15.0,15.0,81,0.00,,,0.00,meteohub,2013-04-21 15:17:00,
2013-04-21 11:22:00,69.1,61.9,30.22,East,90,13.0,15.0,78,0.00,,,0.00,meteohub,2013-04-21 15:22:00,
2013-04-21 11:27:00,69.3,63.9,30.22,SE,135,8.0,15.0,83,0.00,,,0.00,meteohub,2013-04-21 15:27:00,
2013-04-21 11:32:00,69.3,62.4,30.21,East,90,11.0,15.0,79,0.00,,,0.00,meteohub,2013-04-21 15:32:00,
2013-04-21 11:37:00,70.0,63.9,30.21,East,90,11.0,14.0,81,0.00,,,0.00,meteohub,2013-04-21 15:37:00,
2013-04-21 11:42:00,69.8,63.0,30.22,SE,135,9.0,15.0,79,0.00,,,0.00,meteohub,2013-04-21 15:42:00,
2013-04-21 11:47:00,69.8,64.0,30.22,East,90,10.0,15.0,82,0.00,,,0.00,meteohub,2013-04-21 15:47:00,
2013-04-21 11:52:00,69.8,62.6,30.22,SE,135,10.0,15.0,78,0.00,,,0.00,meteohub,2013-04-21 15:52:00,
2013-04-21 11:57:00,69.6,63.5,30.21,SE,135,11.0,14.0,81,0.00,,,0.00,meteohub,2013-04-21 15:57:00,
2013-04-21 12:02:00,69.4,62.6,30.22,East,90,11.0,14.0,79,0.00,,,0.00,meteohub,2013-04-21 16:02:00,
2013-04-21 12:07:00,70.0,63.5,30.22,East,90,11.0,14.0,80,0.00,,,0.00,meteohub,2013-04-21 16:07:00,
2013-04-21 12:12:00,70.7,64.2,30.22,East,90,9.0,14.0,80,0.00,,,0.00,meteohub,2013-04-21 16:12:00,
2013-04-21 12:17:00,70.7,62.4,30.22,SE,135,10.0,11.0,75,0.00,,,0.00,meteohub,2013-04-21 16:17:00,
2013-04-21 12:22:00,69.6,62.8,30.22,East,90,7.0,13.0,79,0.00,,,0.00,meteohub,2013-04-21 16:22:00,
2013-04-21 12:27:00,69.3,63.5,30.22,SE,135,7.0,15.0,82,0.00,,,0.00,meteohub,2013-04-21 16:27:00,
2013-04-21 12:32:00,70.3,62.4,30.21,East,90,9.0,15.0,76,0.00,,,0.00,meteohub,2013-04-21 16:32:00,
2013-04-21 12:37:00,71.2,64.8,30.22,SE,135,5.0,15.0,80,0.00,,,0.00,meteohub,2013-04-21 16:37:00,
2013-04-21 12:42:00,72.9,64.8,30.22,ESE,113,11.0,11.0,76,0.00,,,0.00,meteohub,2013-04-21 16:42:00,
2013-04-21 12:47:00,72.3,64.4,30.22,SE,135,12.0,14.0,76,0.00,,,0.00,meteohub,2013-04-21 16:47:00,
2013-04-21 12:52:00,72.3,64.8,30.21,SE,135,8.0,15.0,77,0.00,,,0.00,meteohub,2013-04-21 16:52:00,
2013-04-21 12:57:00,73.4,66.2,30.22,East,90,8.0,15.0,78,0.00,,,0.00,meteohub,2013-04-21 16:57:00,
2013-04-21 13:02:00,73.2,64.0,30.22,East,90,11.0,15.0,73,0.00,,,0.00,meteohub,2013-04-21 17:02:00,
2013-04-21 13:07:00,72.7,64.2,30.22,East,90,11.0,15.0,75,0.00,,,0.00,meteohub,2013-04-21 17:07:00,
2013-04-21 13:12:00,71.6,65.1,30.21,East,90,8.0,12.0,80,0.00,,,0.00,meteohub,2013-04-21 17:12:00,
2013-04-21 13:17:00,71.2,63.0,30.21,East,90,11.0,15.0,75,0.00,,,0.00,meteohub,2013-04-21 17:17:00,
2013-04-21 13:22:00,72.0,65.1,30.21,NE,45,10.0,15.0,79,0.00,,,0.00,meteohub,2013-04-21 17:22:00,
2013-04-21 13:27:00,72.9,64.4,30.20,SE,135,12.0,15.0,75,0.00,,,0.00,meteohub,2013-04-21 17:27:00,
2013-04-21 13:32:00,73.6,66.4,30.21,SE,135,14.0,14.0,78,0.00,,,0.00,meteohub,2013-04-21 17:32:00,
2013-04-21 13:37:00,73.9,66.6,30.20,ESE,113,7.0,14.0,78,0.00,,,0.00,meteohub,2013-04-21 17:37:00,
2013-04-21 13:42:00,73.8,64.6,30.20,SE,135,11.0,14.0,73,0.00,,,0.00,meteohub,2013-04-21 17:42:00,
2013-04-21 13:47:00,72.1,64.9,30.20,ESE,113,10.0,14.0,78,0.00,,,0.00,meteohub,2013-04-21 17:47:00,
2013-04-21 13:52:00,72.5,64.9,30.20,East,90,8.0,15.0,77,0.00,,,0.00,meteohub,2013-04-21 17:52:00,
2013-04-21 13:57:00,73.2,64.0,30.19,ESE,113,10.0,15.0,73,0.00,,,0.00,meteohub,2013-04-21 17:57:00,
2013-04-21 14:02:00,72.9,64.4,30.20,SSE,158,14.0,15.0,75,0.00,,,0.00,meteohub,2013-04-21 18:02:00,
2013-04-21 14:07:00,73.0,63.9,30.20,ESE,113,11.0,15.0,73,0.00,,,0.00,meteohub,2013-04-21 18:07:00,
2013-04-21 14:12:00,72.5,63.7,30.20,SE,135,11.0,16.0,74,0.00,,,0.00,meteohub,2013-04-21 18:12:00,
2013-04-21 14:17:00,73.0,63.9,30.19,SE,135,8.0,16.0,73,0.00,,,0.00,meteohub,2013-04-21 18:17:00,
2013-04-21 14:22:00,73.6,65.8,30.19,SE,135,11.0,16.0,77,0.00,,,0.00,meteohub,2013-04-21 18:22:00,
2013-04-21 14:27:00,73.6,65.1,30.19,SE,135,12.0,15.0,75,0.00,,,0.00,meteohub,2013-04-21 18:27:00,
2013-04-21 14:32:00,72.9,63.0,30.19,East,90,12.0,15.0,71,0.00,,,0.00,meteohub,2013-04-21 18:32:00,
2013-04-21 14:37:00,72.5,63.7,30.19,SSE,158,15.0,15.0,74,0.00,,,0.00,meteohub,2013-04-21 18:37:00,
2013-04-21 14:42:00,72.9,64.0,30.19,East,90,12.0,15.0,74,0.00,,,0.00,meteohub,2013-04-21 18:42:00,
2013-04-21 14:47:00,73.4,65.3,30.19,SE,135,11.0,15.0,76,0.00,,,0.00,meteohub,2013-04-21 18:47:00,
2013-04-21 14:52:00,73.2,64.4,30.20,SE,135,14.0,15.0,74,0.00,,,0.00,meteohub,2013-04-21 18:52:00,
2013-04-21 14:57:00,73.4,64.6,30.19,East,90,13.0,15.0,74,0.00,,,0.00,meteohub,2013-04-21 18:57:00,
2013-04-21 15:02:00,73.4,65.7,30.19,SE,135,8.0,15.0,77,0.00,,,0.00,meteohub,2013-04-21 19:02:00,
2013-04-21 15:07:00,73.4,65.3,30.18,SE,135,13.0,15.0,76,0.00,,,0.00,meteohub,2013-04-21 19:07:00,
2013-04-21 15:12:00,72.7,65.1,30.19,SSE,158,12.0,15.0,77,0.00,,,0.00,meteohub,2013-04-21 19:12:00,
2013-04-21 15:17:00,74.1,65.3,30.18,ESE,113,14.0,15.0,74,0.00,,,0.00,meteohub,2013-04-21 19:17:00,
2013-04-21 15:22:00,74.3,65.5,30.18,SE,135,14.0,15.0,74,0.00,,,0.00,meteohub,2013-04-21 19:22:00,
2013-04-21 15:27:00,74.1,64.9,30.17,SE,135,16.0,16.0,73,0.00,,,0.00,meteohub,2013-04-21 19:27:00,
2013-04-21 15:32:00,73.8,64.6,30.17,SE,135,12.0,16.0,73,0.00,,,0.00,meteohub,2013-04-21 19:32:00,
2013-04-21 15:37:00,73.9,64.8,30.17,East,90,13.0,19.0,73,0.00,,,0.00,meteohub,2013-04-21 19:37:00,
2013-04-21 15:42:00,72.5,64.0,30.17,South,180,9.0,19.0,75,0.00,,,0.00,meteohub,2013-04-21 19:42:00,
2013-04-21 15:47:00,73.2,65.7,30.17,SE,135,12.0,19.0,77,0.00,,,0.00,meteohub,2013-04-21 19:47:00,
2013-04-21 15:52:00,73.6,64.8,30.16,East,90,17.0,17.0,74,0.00,,,0.00,meteohub,2013-04-21 19:52:00,
2013-04-21 15:57:00,74.1,66.0,30.17,East,90,14.0,17.0,76,0.00,,,0.00,meteohub,2013-04-21 19:57:00,
2013-04-21 16:02:00,75.2,65.5,30.16,East,90,13.0,17.0,72,0.00,,,0.00,meteohub,2013-04-21 20:02:00,
2013-04-21 16:07:00,73.8,65.7,30.16,SE,135,14.0,17.0,76,0.00,,,0.00,meteohub,2013-04-21 20:07:00,
2013-04-21 16:12:00,72.5,65.3,30.16,East,90,15.0,17.0,78,0.00,,,0.00,meteohub,2013-04-21 20:12:00,
2013-04-21 16:17:00,72.1,66.4,30.16,SE,135,10.0,17.0,82,0.00,,,0.00,meteohub,2013-04-21 20:17:00,
2013-04-21 16:22:00,71.2,65.1,30.17,East,90,10.0,17.0,81,0.00,,,0.00,meteohub,2013-04-21 20:22:00,
2013-04-21 16:27:00,71.8,65.3,30.15,East,90,15.0,17.0,80,0.00,,,0.00,meteohub,2013-04-21 20:27:00,
2013-04-21 16:32:00,71.8,64.9,30.16,SE,135,13.0,17.0,79,0.00,,,0.00,meteohub,2013-04-21 20:32:00,
2013-04-21 16:37:00,71.6,65.1,30.16,SE,135,11.0,21.0,80,0.00,,,0.00,meteohub,2013-04-21 20:37:00,
2013-04-21 16:42:00,71.6,65.5,30.15,East,90,15.0,21.0,81,0.00,,,0.00,meteohub,2013-04-21 20:42:00,
2013-04-21 16:47:00,71.6,65.5,30.15,SE,135,9.0,20.0,81,0.00,,,0.00,meteohub,2013-04-21 20:47:00,
2013-04-21 16:52:00,71.4,66.0,30.14,East,90,10.0,17.0,83,0.00,,,0.00,meteohub,2013-04-21 20:52:00,
2013-04-21 16:57:00,71.6,66.6,30.14,SE,135,6.0,17.0,84,0.00,,,0.00,meteohub,2013-04-21 20:57:00,
2013-04-21 17:02:00,71.4,65.7,30.14,SE,135,9.0,17.0,82,0.00,,,0.00,meteohub,2013-04-21 21:02:00,
2013-04-21 17:07:00,70.9,64.8,30.15,East,90,15.0,15.0,81,0.00,,,0.00,meteohub,2013-04-21 21:07:00,
2013-04-21 17:12:00,70.2,65.1,30.15,East,90,15.0,17.0,84,0.00,,,0.00,meteohub,2013-04-21 21:12:00,
2013-04-21 17:17:00,69.6,64.6,30.14,SE,135,14.0,17.0,84,0.00,,,0.00,meteohub,2013-04-21 21:17:00,
2013-04-21 17:22:00,68.9,63.9,30.15,SE,135,13.0,17.0,84,0.00,,,0.00,meteohub,2013-04-21 21:22:00,
2013-04-21 17:27:00,68.5,63.9,30.15,SE,135,11.0,17.0,85,0.00,,,0.00,meteohub,2013-04-21 21:27:00,
2013-04-21 17:32:00,68.0,63.7,30.15,SE,135,13.0,15.0,86,0.00,,,0.00,meteohub,2013-04-21 21:32:00,
2013-04-21 17:37:00,67.8,64.2,30.15,ESE,113,6.0,15.0,88,0.00,,,0.00,meteohub,2013-04-21 21:37:00,
2013-04-21 17:42:00,67.8,63.9,30.16,East,90,11.0,18.0,87,0.00,,,0.00,meteohub,2013-04-21 21:42:00,
2013-04-21 17:47:00,67.6,63.0,30.16,East,90,11.0,18.0,85,0.00,,,0.00,meteohub,2013-04-21 21:47:00,
2013-04-21 17:52:00,67.1,63.5,30.16,South,180,15.0,17.0,88,0.00,,,0.00,meteohub,2013-04-21 21:52:00,
2013-04-21 17:57:00,67.1,62.8,30.16,East,90,8.0,17.0,86,0.00,,,0.00,meteohub,2013-04-21 21:57:00,
2013-04-21 18:02:00,67.1,63.1,30.16,SE,135,11.0,17.0,87,0.00,,,0.00,meteohub,2013-04-21 22:02:00,
2013-04-21 18:07:00,67.1,62.8,30.16,East,90,11.0,15.0,86,0.00,,,0.00,meteohub,2013-04-21 22:07:00,
2013-04-21 18:12:00,67.1,63.5,30.16,East,90,9.0,15.0,88,0.00,,,0.00,meteohub,2013-04-21 22:12:00,
2013-04-21 18:17:00,66.9,63.3,30.16,SE,135,9.0,15.0,88,0.00,,,0.00,meteohub,2013-04-21 22:17:00,
2013-04-21 18:22:00,66.6,62.2,30.16,East,90,8.0,11.0,86,0.00,,,0.00,meteohub,2013-04-21 22:22:00,
2013-04-21 18:27:00,66.0,62.4,30.16,East,90,15.0,15.0,88,0.00,,,0.00,meteohub,2013-04-21 22:27:00,
2013-04-21 18:32:00,65.8,62.2,30.16,SE,135,21.0,21.0,88,0.00,,,0.00,meteohub,2013-04-21 22:32:00,
2013-04-21 18:37:00,65.5,62.2,30.16,East,90,14.0,21.0,89,0.00,,,0.00,meteohub,2013-04-21 22:37:00,
2013-04-21 18:42:00,65.1,62.4,30.18,SE,135,12.0,21.0,91,0.00,,,0.00,meteohub,2013-04-21 22:42:00,
2013-04-21 18:47:00,64.8,62.4,30.18,SE,135,10.0,21.0,92,0.00,,,0.00,meteohub,2013-04-21 22:47:00,
2013-04-21 18:52:00,64.6,62.4,30.18,ESE,113,12.0,15.0,93,0.00,,,0.00,meteohub,2013-04-21 22:52:00,
2013-04-21 18:57:00,64.4,62.6,30.19,SE,135,9.0,15.0,94,0.00,,,0.00,meteohub,2013-04-21 22:57:00,
2013-04-21 19:02:00,64.2,62.4,30.19,SE,135,11.0,15.0,94,0.00,,,0.00,meteohub,2013-04-21 23:02:00,
2013-04-21 19:07:00,64.2,62.2,30.19,East,90,8.0,13.0,93,0.00,,,0.00,meteohub,2013-04-21 23:07:00,
2013-04-21 19:12:00,64.0,62.6,30.20,SE,135,8.0,13.0,95,0.00,,,0.00,meteohub,2013-04-21 23:12:00,
2013-04-21 19:17:00,63.9,62.1,30.20,SE,135,9.0,13.0,94,0.00,,,0.00,meteohub,2013-04-21 23:17:00,
2013-04-21 19:22:00,63.9,62.1,30.20,SE,135,13.0,13.0,94,0.00,,,0.00,meteohub,2013-04-21 23:22:00,
2013-04-21 19:28:00,63.7,61.9,30.20,East,90,13.0,16.0,94,0.00,,,0.00,meteohub,2013-04-21 23:28:00,
2013-04-21 19:33:00,63.5,62.1,30.20,SE,135,11.0,16.0,95,0.00,,,0.00,meteohub,2013-04-21 23:33:00,
2013-04-21 19:38:00,63.5,62.1,30.21,SE,135,9.0,16.0,95,0.00,,,0.00,meteohub,2013-04-21 23:38:00,
2013-04-21 19:43:00,63.3,62.2,30.21,SE,135,8.0,13.0,96,0.00,,,0.00,meteohub,2013-04-21 23:43:00,
2013-04-21 19:48:00,63.1,62.1,30.21,SE,135,9.0,11.0,96,0.00,,,0.00,meteohub,2013-04-21 23:48:00,
2013-04-21 19:53:00,63.1,62.2,30.20,East,90,8.0,11.0,97,0.00,,,0.00,meteohub,2013-04-21 23:53:00,
2013-04-21 19:58:00,63.0,62.4,30.20,SE,135,7.0,10.0,98,0.00,,,0.00,meteohub,2013-04-21 23:58:00,
2013-04-21 20:03:00,62.8,62.2,30.20,East,90,7.0,10.0,98,0.00,,,0.00,meteohub,2013-04-22 00:03:00,
2013-04-21 20:08:00,62.8,61.7,30.19,East,90,8.0,10.0,96,0.00,,,0.00,meteohub,2013-04-22 00:08:00,
2013-04-21 20:13:00,62.6,61.2,30.19,ESE,113,11.0,12.0,95,0.00,,,0.00,meteohub,2013-04-22 00:13:00,
2013-04-21 20:18:00,62.6,61.2,30.20,ENE,68,6.0,14.0,95,0.00,,,0.00,meteohub,2013-04-22 00:18:00,
2013-04-21 20:23:00,62.6,61.5,30.20,East,90,6.0,14.0,96,0.00,,,0.00,meteohub,2013-04-22 00:23:00,
2013-04-21 20:28:00,62.4,61.0,30.20,SE,135,11.0,14.0,95,0.00,,,0.00,meteohub,2013-04-22 00:28:00,
2013-04-21 20:33:00,62.2,60.8,30.20,SE,135,12.0,14.0,95,0.00,,,0.00,meteohub,2013-04-22 00:33:00,
2013-04-21 20:38:00,62.4,61.0,30.21,East,90,8.0,14.0,95,0.00,,,0.00,meteohub,2013-04-22 00:38:00,
2013-04-21 20:43:00,62.2,60.8,30.21,North,0,6.0,14.0,95,0.00,,,0.00,meteohub,2013-04-22 00:43:00,
2013-04-21 20:48:00,62.2,61.2,30.21,SE,135,6.0,13.0,96,0.00,,,0.00,meteohub,2013-04-22 00:48:00,
2013-04-21 20:53:00,62.1,60.6,30.21,ENE,68,7.0,11.0,95,0.00,,,0.00,meteohub,2013-04-22 00:53:00,
2013-04-21 20:59:00,62.1,60.6,30.22,East,90,8.0,11.0,95,0.00,,,0.00,meteohub,2013-04-22 00:59:00,
2013-04-21 21:04:00,61.9,60.4,30.22,East,90,15.0,15.0,95,0.00,,,0.00,meteohub,2013-04-22 01:04:00,
2013-04-21 21:09:00,61.9,60.4,30.23,SE,135,14.0,14.0,95,0.00,,,0.00,meteohub,2013-04-22 01:09:00,
2013-04-21 21:14:00,61.7,60.3,30.23,East,90,6.0,15.0,95,0.00,,,0.00,meteohub,2013-04-22 01:14:00,
2013-04-21 21:19:00,61.5,59.7,30.22,SE,135,12.0,15.0,94,0.00,,,0.00,meteohub,2013-04-22 01:19:00,
2013-04-21 21:24:00,61.5,59.7,30.23,ESE,113,11.0,14.0,94,0.00,,,0.00,meteohub,2013-04-22 01:24:00,
2013-04-21 21:29:00,61.5,60.1,30.22,SE,135,9.0,14.0,95,0.00,,,0.00,meteohub,2013-04-22 01:29:00,
2013-04-21 21:34:00,61.3,60.3,30.22,South,180,5.0,14.0,96,0.00,,,0.00,meteohub,2013-04-22 01:34:00,
2013-04-21 21:39:00,61.2,60.6,30.22,SE,135,7.0,14.0,98,0.00,,,0.00,meteohub,2013-04-22 01:39:00,
2013-04-21 21:44:00,60.8,59.9,30.22,East,90,7.0,11.0,97,0.00,,,0.00,meteohub,2013-04-22 01:44:00,
2013-04-21 21:49:00,60.8,59.9,30.22,SE,135,7.0,10.0,97,0.00,,,0.00,meteohub,2013-04-22 01:49:00,
2013-04-21 21:54:00,60.8,59.9,30.21,SE,135,8.0,12.0,97,0.00,,,0.00,meteohub,2013-04-22 01:54:00,
2013-04-21 22:00:00,60.4,60.1,30.22,ESE,113,6.0,12.0,99,0.00,,,0.00,meteohub,2013-04-22 02:00:00,
2013-04-21 22:05:00,60.1,59.7,30.22,East,90,8.0,10.0,99,0.00,,,0.00,meteohub,2013-04-22 02:05:00,
2013-04-21 22:11:00,60.1,59.7,30.21,East,90,11.0,13.0,99,0.00,,,0.00,meteohub,2013-04-22 02:11:00,
2013-04-21 22:16:00,59.9,59.5,30.21,SE,135,7.0,14.0,99,0.00,,,0.00,meteohub,2013-04-22 02:16:00,
2013-04-21 22:21:00,59.9,59.5,30.21,East,90,7.0,14.0,99,0.00,,,0.00,meteohub,2013-04-22 02:21:00,
2013-04-21 22:26:00,59.7,59.4,30.21,SE,135,15.0,15.0,99,0.00,,,0.00,meteohub,2013-04-22 02:26:00,
2013-04-21 22:31:00,59.7,59.4,30.21,East,90,11.0,15.0,99,0.00,,,0.00,meteohub,2013-04-22 02:31:00,
2013-04-21 22:36:00,59.5,59.2,30.21,SE,135,5.0,15.0,99,0.00,,,0.00,meteohub,2013-04-22 02:36:00,
2013-04-21 22:41:00,59.5,59.2,30.21,East,90,7.0,15.0,99,0.00,,,0.00,meteohub,2013-04-22 02:41:00,
2013-04-21 22:46:00,59.5,59.2,30.20,ESE,113,5.0,11.0,99,0.00,,,0.00,meteohub,2013-04-22 02:46:00,
2013-04-21 22:51:00,59.5,59.2,30.21,East,90,6.0,9.0,99,0.00,,,0.00,meteohub,2013-04-22 02:51:00,
2013-04-21 22:56:00,59.5,59.0,30.20,SE,135,9.0,12.0,98,0.00,,,0.00,meteohub,2013-04-22 02:56:00,
2013-04-21 23:01:00,59.7,59.4,30.20,SE,135,4.0,12.0,99,0.00,,,0.00,meteohub,2013-04-22 03:01:00,
2013-04-21 23:06:00,59.7,59.4,30.20,East,90,6.0,11.0,99,0.00,,,0.00,meteohub,2013-04-22 03:06:00,
2013-04-21 23:11:00,59.7,59.4,30.19,ESE,113,9.0,11.0,99,0.00,,,0.00,meteohub,2013-04-22 03:11:00,
2013-04-21 23:16:00,59.7,59.2,30.20,SE,135,8.0,11.0,98,0.00,,,0.00,meteohub,2013-04-22 03:16:00,
2013-04-21 23:21:00,59.7,59.2,30.20,SE,135,4.0,11.0,98,0.00,,,0.00,meteohub,2013-04-22 03:21:00,
2013-04-21 23:26:00,59.5,59.0,30.19,SE,135,8.0,11.0,98,0.00,,,0.00,meteohub,2013-04-22 03:26:00,
2013-04-21 23:31:00,59.5,59.0,30.19,East,90,8.0,8.0,98,0.00,,,0.00,meteohub,2013-04-22 03:31:00,
2013-04-21 23:36:00,59.5,59.2,30.19,ESE,113,4.0,8.0,99,0.00,,,0.00,meteohub,2013-04-22 03:36:00,
2013-04-21 23:42:00,59.5,59.0,30.19,SSW,203,10.0,12.0,98,0.00,,,0.00,meteohub,2013-04-22 03:42:00,
2013-04-21 23:47:00,59.5,59.2,30.19,East,90,8.0,12.0,99,0.00,,,0.00,meteohub,2013-04-22 03:47:00,
2013-04-21 23:52:00,59.5,59.0,30.19,ENE,68,10.0,14.0,98,0.00,,,0.00,meteohub,2013-04-22 03:52:00,
2013-04-21 23:57:00,59.5,58.6,30.18,East,90,7.0,14.0,97,0.00,,,0.00,meteohub,2013-04-22 03:57:00,